sensor_id;sensor_type;location;lat;lon;timestamp;P1;durP1;ratioP1;P2;durP2;ratioP2
26686;SDS011;14298;50.900;4.648;2022-07-23T00:00:29;47.67;;;29.13;;
26686;SDS011;14298;50.900;4.648;2022-07-23T00:02:58;39.47;;;24.23;;
26686;SDS011;14298;50.900;4.648;2022-07-23T00:05:26;40.10;;;25.63;;
26686;SDS011;14298;50.900;4.648;2022-07-23T00:07:55;31.47;;;21.80;;
26686;SDS011;14298;50.900;4.648;2022-07-23T00:10:23;46.77;;;25.83;;
26686;SDS011;14298;50.900;4.648;2022-07-23T00:12:51;56.60;;;28.60;;
26686;SDS011;14298;50.900;4.648;2022-07-23T00:15:20;34.23;;;22.07;;
26686;SDS011;14298;50.900;4.648;2022-07-23T00:17:48;38.50;;;23.63;;
26686;SDS011;14298;50.900;4.648;2022-07-23T00:20:17;34.00;;;24.27;;
26686;SDS011;14298;50.900;4.648;2022-07-23T00:22:49;39.07;;;23.53;;
26686;SDS011;14298;50.900;4.648;2022-07-23T00:25:19;45.67;;;25.00;;
26686;SDS011;14298;50.900;4.648;2022-07-23T00:27:49;31.73;;;21.60;;
26686;SDS011;14298;50.900;4.648;2022-07-23T00:30:17;42.30;;;25.93;;
26686;SDS011;14298;50.900;4.648;2022-07-23T00:32:52;39.30;;;23.33;;
26686;SDS011;14298;50.900;4.648;2022-07-23T00:35:24;39.70;;;23.37;;
26686;SDS011;14298;50.900;4.648;2022-07-23T00:37:55;46.47;;;28.00;;
26686;SDS011;14298;50.900;4.648;2022-07-23T00:40:23;42.07;;;25.30;;
26686;SDS011;14298;50.900;4.648;2022-07-23T00:42:52;36.47;;;24.07;;
26686;SDS011;14298;50.900;4.648;2022-07-23T00:45:21;37.00;;;24.27;;
26686;SDS011;14298;50.900;4.648;2022-07-23T00:47:49;31.70;;;20.93;;
26686;SDS011;14298;50.900;4.648;2022-07-23T00:50:18;53.50;;;26.93;;
26686;SDS011;14298;50.900;4.648;2022-07-23T00:52:46;66.93;;;29.57;;
26686;SDS011;14298;50.900;4.648;2022-07-23T00:55:15;43.93;;;25.77;;
26686;SDS011;14298;50.900;4.648;2022-07-23T00:57:43;54.07;;;29.20;;
26686;SDS011;14298;50.900;4.648;2022-07-23T01:00:14;44.43;;;27.53;;
26686;SDS011;14298;50.900;4.648;2022-07-23T01:02:44;52.20;;;30.60;;
26686;SDS011;14298;50.900;4.648;2022-07-23T01:05:14;47.77;;;27.47;;
26686;SDS011;14298;50.900;4.648;2022-07-23T01:07:44;56.43;;;33.93;;
26686;SDS011;14298;50.900;4.648;2022-07-23T01:10:13;55.63;;;31.67;;
26686;SDS011;14298;50.900;4.648;2022-07-23T01:13:15;87.90;;;36.73;;
26686;SDS011;14298;50.900;4.648;2022-07-23T01:15:34;70.03;;;32.97;;
26686;SDS011;14298;50.900;4.648;2022-07-23T01:18:05;40.63;;;27.27;;
26686;SDS011;14298;50.900;4.648;2022-07-23T01:20:35;40.37;;;27.73;;
26686;SDS011;14298;50.900;4.648;2022-07-23T01:23:04;66.50;;;31.73;;
26686;SDS011;14298;50.900;4.648;2022-07-23T01:25:32;36.90;;;25.17;;
26686;SDS011;14298;50.900;4.648;2022-07-23T01:28:00;66.07;;;32.43;;
26686;SDS011;14298;50.900;4.648;2022-07-23T01:30:29;63.37;;;31.33;;
26686;SDS011;14298;50.900;4.648;2022-07-23T01:32:57;41.53;;;26.60;;
26686;SDS011;14298;50.900;4.648;2022-07-23T01:35:26;55.17;;;30.20;;
26686;SDS011;14298;50.900;4.648;2022-07-23T01:37:54;53.57;;;29.23;;
26686;SDS011;14298;50.900;4.648;2022-07-23T01:40:26;65.83;;;32.33;;
26686;SDS011;14298;50.900;4.648;2022-07-23T01:42:56;47.93;;;29.27;;
26686;SDS011;14298;50.900;4.648;2022-07-23T01:45:24;46.03;;;29.73;;
26686;SDS011;14298;50.900;4.648;2022-07-23T01:47:52;59.90;;;31.73;;
26686;SDS011;14298;50.900;4.648;2022-07-23T01:50:22;56.90;;;32.00;;
26686;SDS011;14298;50.900;4.648;2022-07-23T01:52:51;63.27;;;34.70;;
26686;SDS011;14298;50.900;4.648;2022-07-23T01:55:25;39.60;;;26.37;;
26686;SDS011;14298;50.900;4.648;2022-07-23T01:57:49;55.30;;;33.53;;
26686;SDS011;14298;50.900;4.648;2022-07-23T02:00:18;53.17;;;32.03;;
26686;SDS011;14298;50.900;4.648;2022-07-23T02:02:46;56.50;;;31.43;;
26686;SDS011;14298;50.900;4.648;2022-07-23T02:05:15;43.97;;;27.83;;
26686;SDS011;14298;50.900;4.648;2022-07-23T02:07:43;55.03;;;30.97;;
26686;SDS011;14298;50.900;4.648;2022-07-23T02:10:12;44.63;;;27.57;;
26686;SDS011;14298;50.900;4.648;2022-07-23T02:12:42;60.80;;;31.40;;
26686;SDS011;14298;50.900;4.648;2022-07-23T02:15:10;47.57;;;30.30;;
26686;SDS011;14298;50.900;4.648;2022-07-23T02:17:39;38.50;;;25.63;;
26686;SDS011;14298;50.900;4.648;2022-07-23T02:20:10;46.03;;;26.47;;
26686;SDS011;14298;50.900;4.648;2022-07-23T02:22:38;57.83;;;31.67;;
26686;SDS011;14298;50.900;4.648;2022-07-23T02:25:07;53.57;;;29.37;;
26686;SDS011;14298;50.900;4.648;2022-07-23T02:27:38;55.27;;;32.37;;
26686;SDS011;14298;50.900;4.648;2022-07-23T02:30:07;53.90;;;30.77;;
26686;SDS011;14298;50.900;4.648;2022-07-23T02:32:36;60.93;;;33.23;;
26686;SDS011;14298;50.900;4.648;2022-07-23T02:35:08;92.93;;;37.80;;
26686;SDS011;14298;50.900;4.648;2022-07-23T02:37:36;81.13;;;34.87;;
26686;SDS011;14298;50.900;4.648;2022-07-23T02:40:06;50.13;;;30.40;;
26686;SDS011;14298;50.900;4.648;2022-07-23T02:42:35;34.67;;;26.07;;
26686;SDS011;14298;50.900;4.648;2022-07-23T02:45:04;55.33;;;31.73;;
26686;SDS011;14298;50.900;4.648;2022-07-23T02:47:36;52.73;;;32.07;;
26686;SDS011;14298;50.900;4.648;2022-07-23T02:50:04;47.80;;;31.33;;
26686;SDS011;14298;50.900;4.648;2022-07-23T02:52:34;55.73;;;31.37;;
26686;SDS011;14298;50.900;4.648;2022-07-23T02:55:02;66.07;;;35.93;;
26686;SDS011;14298;50.900;4.648;2022-07-23T02:57:31;47.40;;;30.07;;
26686;SDS011;14298;50.900;4.648;2022-07-23T02:59:59;56.77;;;32.10;;
26686;SDS011;14298;50.900;4.648;2022-07-23T03:02:28;79.33;;;37.63;;
26686;SDS011;14298;50.900;4.648;2022-07-23T03:04:57;60.13;;;31.87;;
26686;SDS011;14298;50.900;4.648;2022-07-23T03:07:25;58.47;;;32.70;;
26686;SDS011;14298;50.900;4.648;2022-07-23T03:09:54;74.00;;;35.77;;
26686;SDS011;14298;50.900;4.648;2022-07-23T03:12:22;60.47;;;34.07;;
26686;SDS011;14298;50.900;4.648;2022-07-23T03:14:50;60.07;;;34.60;;
26686;SDS011;14298;50.900;4.648;2022-07-23T03:17:19;85.17;;;38.70;;
26686;SDS011;14298;50.900;4.648;2022-07-23T03:19:47;74.83;;;37.40;;
26686;SDS011;14298;50.900;4.648;2022-07-23T03:22:16;55.87;;;32.93;;
26686;SDS011;14298;50.900;4.648;2022-07-23T03:24:44;77.70;;;36.50;;
26686;SDS011;14298;50.900;4.648;2022-07-23T03:27:22;60.70;;;33.40;;
26686;SDS011;14298;50.900;4.648;2022-07-23T03:29:55;57.77;;;33.10;;
26686;SDS011;14298;50.900;4.648;2022-07-23T03:32:25;70.40;;;34.97;;
26686;SDS011;14298;50.900;4.648;2022-07-23T03:34:54;77.60;;;39.17;;
26686;SDS011;14298;50.900;4.648;2022-07-23T03:37:22;50.40;;;31.50;;
26686;SDS011;14298;50.900;4.648;2022-07-23T03:39:51;57.00;;;32.17;;
26686;SDS011;14298;50.900;4.648;2022-07-23T03:42:19;46.00;;;30.13;;
26686;SDS011;14298;50.900;4.648;2022-07-23T03:44:48;65.70;;;35.67;;
26686;SDS011;14298;50.900;4.648;2022-07-23T03:47:18;47.37;;;29.47;;
26686;SDS011;14298;50.900;4.648;2022-07-23T03:49:48;53.50;;;28.97;;
26686;SDS011;14298;50.900;4.648;2022-07-23T03:52:17;77.70;;;34.47;;
26686;SDS011;14298;50.900;4.648;2022-07-23T03:54:45;41.70;;;27.80;;
26686;SDS011;14298;50.900;4.648;2022-07-23T03:57:13;40.00;;;27.23;;
26686;SDS011;14298;50.900;4.648;2022-07-23T03:59:47;47.60;;;28.70;;
26686;SDS011;14298;50.900;4.648;2022-07-23T04:02:12;56.17;;;30.57;;
26686;SDS011;14298;50.900;4.648;2022-07-23T04:04:42;57.90;;;32.67;;
26686;SDS011;14298;50.900;4.648;2022-07-23T04:07:12;58.80;;;35.33;;
26686;SDS011;14298;50.900;4.648;2022-07-23T04:09:41;70.53;;;36.97;;
26686;SDS011;14298;50.900;4.648;2022-07-23T04:12:09;68.80;;;36.73;;
26686;SDS011;14298;50.900;4.648;2022-07-23T04:14:38;63.53;;;35.83;;
26686;SDS011;14298;50.900;4.648;2022-07-23T04:17:06;78.43;;;37.03;;
26686;SDS011;14298;50.900;4.648;2022-07-23T04:19:34;67.13;;;37.27;;
26686;SDS011;14298;50.900;4.648;2022-07-23T04:22:05;60.67;;;34.43;;
26686;SDS011;14298;50.900;4.648;2022-07-23T04:24:34;59.97;;;34.27;;
26686;SDS011;14298;50.900;4.648;2022-07-23T04:27:03;57.73;;;34.20;;
26686;SDS011;14298;50.900;4.648;2022-07-23T04:29:32;63.93;;;36.10;;
26686;SDS011;14298;50.900;4.648;2022-07-23T04:32:01;66.17;;;33.10;;
26686;SDS011;14298;50.900;4.648;2022-07-23T04:34:29;58.60;;;35.13;;
26686;SDS011;14298;50.900;4.648;2022-07-23T04:36:57;70.70;;;35.97;;
26686;SDS011;14298;50.900;4.648;2022-07-23T04:39:26;55.47;;;33.83;;
26686;SDS011;14298;50.900;4.648;2022-07-23T04:41:54;42.23;;;29.67;;
26686;SDS011;14298;50.900;4.648;2022-07-23T04:44:24;55.10;;;31.80;;
26686;SDS011;14298;50.900;4.648;2022-07-23T04:46:53;53.23;;;33.13;;
26686;SDS011;14298;50.900;4.648;2022-07-23T04:49:21;61.87;;;34.20;;
26686;SDS011;14298;50.900;4.648;2022-07-23T04:51:49;68.03;;;33.63;;
26686;SDS011;14298;50.900;4.648;2022-07-23T04:54:18;52.10;;;32.20;;
26686;SDS011;14298;50.900;4.648;2022-07-23T04:56:46;50.30;;;30.77;;
26686;SDS011;14298;50.900;4.648;2022-07-23T04:59:15;54.10;;;33.63;;
26686;SDS011;14298;50.900;4.648;2022-07-23T05:01:43;65.47;;;35.00;;
26686;SDS011;14298;50.900;4.648;2022-07-23T05:04:11;55.23;;;35.07;;
26686;SDS011;14298;50.900;4.648;2022-07-23T05:06:40;63.27;;;36.13;;
26686;SDS011;14298;50.900;4.648;2022-07-23T05:09:08;61.27;;;36.77;;
26686;SDS011;14298;50.900;4.648;2022-07-23T05:11:36;53.50;;;35.30;;
26686;SDS011;14298;50.900;4.648;2022-07-23T05:14:04;52.60;;;33.77;;
26686;SDS011;14298;50.900;4.648;2022-07-23T05:16:33;44.67;;;33.07;;
26686;SDS011;14298;50.900;4.648;2022-07-23T05:19:01;50.43;;;35.17;;
26686;SDS011;14298;50.900;4.648;2022-07-23T05:21:30;50.10;;;35.03;;
26686;SDS011;14298;50.900;4.648;2022-07-23T05:23:58;43.03;;;34.17;;
26686;SDS011;14298;50.900;4.648;2022-07-23T05:26:27;51.07;;;33.00;;
26686;SDS011;14298;50.900;4.648;2022-07-23T05:28:55;50.70;;;34.73;;
26686;SDS011;14298;50.900;4.648;2022-07-23T05:31:24;44.30;;;32.33;;
26686;SDS011;14298;50.900;4.648;2022-07-23T05:33:52;38.97;;;30.33;;
26686;SDS011;14298;50.900;4.648;2022-07-23T05:36:20;42.30;;;32.97;;
26686;SDS011;14298;50.900;4.648;2022-07-23T05:38:49;40.97;;;32.00;;
26686;SDS011;14298;50.900;4.648;2022-07-23T05:41:17;43.07;;;31.63;;
26686;SDS011;14298;50.900;4.648;2022-07-23T05:43:45;33.07;;;27.00;;
26686;SDS011;14298;50.900;4.648;2022-07-23T05:46:14;30.57;;;25.60;;
26686;SDS011;14298;50.900;4.648;2022-07-23T05:48:43;29.27;;;24.53;;
26686;SDS011;14298;50.900;4.648;2022-07-23T05:51:13;26.90;;;23.30;;
26686;SDS011;14298;50.900;4.648;2022-07-23T05:53:41;29.40;;;24.83;;
26686;SDS011;14298;50.900;4.648;2022-07-23T05:56:09;24.23;;;18.83;;
26686;SDS011;14298;50.900;4.648;2022-07-23T05:58:37;22.00;;;19.07;;
26686;SDS011;14298;50.900;4.648;2022-07-23T06:01:06;25.27;;;21.03;;
26686;SDS011;14298;50.900;4.648;2022-07-23T06:03:34;24.53;;;21.33;;
26686;SDS011;14298;50.900;4.648;2022-07-23T06:06:03;23.17;;;20.77;;
26686;SDS011;14298;50.900;4.648;2022-07-23T06:08:32;27.83;;;20.47;;
26686;SDS011;14298;50.900;4.648;2022-07-23T06:11:01;25.00;;;19.47;;
26686;SDS011;14298;50.900;4.648;2022-07-23T06:13:29;26.47;;;19.13;;
26686;SDS011;14298;50.900;4.648;2022-07-23T06:15:58;22.10;;;19.60;;
26686;SDS011;14298;50.900;4.648;2022-07-23T06:18:26;20.97;;;18.80;;
26686;SDS011;14298;50.900;4.648;2022-07-23T06:20:55;21.97;;;17.53;;
26686;SDS011;14298;50.900;4.648;2022-07-23T06:23:23;19.33;;;16.80;;
26686;SDS011;14298;50.900;4.648;2022-07-23T06:25:51;19.67;;;16.23;;
26686;SDS011;14298;50.900;4.648;2022-07-23T06:28:20;18.40;;;16.00;;
26686;SDS011;14298;50.900;4.648;2022-07-23T06:30:48;17.00;;;15.20;;
26686;SDS011;14298;50.900;4.648;2022-07-23T06:33:16;15.53;;;13.93;;
26686;SDS011;14298;50.900;4.648;2022-07-23T06:35:44;17.67;;;15.87;;
26686;SDS011;14298;50.900;4.648;2022-07-23T06:38:13;17.20;;;15.40;;
26686;SDS011;14298;50.900;4.648;2022-07-23T06:40:41;17.20;;;14.70;;
26686;SDS011;14298;50.900;4.648;2022-07-23T06:43:10;16.00;;;14.30;;
26686;SDS011;14298;50.900;4.648;2022-07-23T06:45:38;17.23;;;15.50;;
26686;SDS011;14298;50.900;4.648;2022-07-23T06:48:07;15.13;;;13.63;;
26686;SDS011;14298;50.900;4.648;2022-07-23T06:50:35;18.37;;;14.77;;
26686;SDS011;14298;50.900;4.648;2022-07-23T06:53:03;15.37;;;13.43;;
26686;SDS011;14298;50.900;4.648;2022-07-23T06:55:32;15.50;;;13.90;;
26686;SDS011;14298;50.900;4.648;2022-07-23T06:58:01;15.80;;;14.20;;
26686;SDS011;14298;50.900;4.648;2022-07-23T07:00:30;16.70;;;14.93;;
26686;SDS011;14298;50.900;4.648;2022-07-23T07:02:59;15.00;;;13.50;;
26686;SDS011;14298;50.900;4.648;2022-07-23T07:05:27;14.40;;;13.00;;
26686;SDS011;14298;50.900;4.648;2022-07-23T07:07:55;15.93;;;14.23;;
26686;SDS011;14298;50.900;4.648;2022-07-23T07:10:24;16.33;;;14.20;;
26686;SDS011;14298;50.900;4.648;2022-07-23T07:12:52;14.87;;;13.30;;
26686;SDS011;14298;50.900;4.648;2022-07-23T07:15:20;14.27;;;12.83;;
26686;SDS011;14298;50.900;4.648;2022-07-23T07:17:49;14.73;;;11.80;;
26686;SDS011;14298;50.900;4.648;2022-07-23T07:20:17;13.73;;;12.30;;
26686;SDS011;14298;50.900;4.648;2022-07-23T07:22:45;14.63;;;12.43;;
26686;SDS011;14298;50.900;4.648;2022-07-23T07:25:14;15.17;;;10.97;;
26686;SDS011;14298;50.900;4.648;2022-07-23T07:27:42;12.17;;;10.97;;
26686;SDS011;14298;50.900;4.648;2022-07-23T07:30:11;11.83;;;10.43;;
26686;SDS011;14298;50.900;4.648;2022-07-23T07:32:41;16.00;;;11.80;;
26686;SDS011;14298;50.900;4.648;2022-07-23T07:35:10;11.37;;;10.13;;
26686;SDS011;14298;50.900;4.648;2022-07-23T07:37:38;17.57;;;10.17;;
26686;SDS011;14298;50.900;4.648;2022-07-23T07:40:07;10.00;;;8.83;;
26686;SDS011;14298;50.900;4.648;2022-07-23T07:42:46;16.07;;;10.70;;
26686;SDS011;14298;50.900;4.648;2022-07-23T07:45:15;12.33;;;9.93;;
26686;SDS011;14298;50.900;4.648;2022-07-23T07:47:44;10.60;;;9.47;;
26686;SDS011;14298;50.900;4.648;2022-07-23T07:50:12;10.70;;;9.13;;
26686;SDS011;14298;50.900;4.648;2022-07-23T07:52:41;10.72;;;9.05;;
26686;SDS011;14298;50.900;4.648;2022-07-23T07:55:10;10.70;;;9.55;;
26686;SDS011;14298;50.900;4.648;2022-07-23T07:57:40;10.38;;;9.38;;
26686;SDS011;14298;50.900;4.648;2022-07-23T08:00:09;11.73;;;9.08;;
26686;SDS011;14298;50.900;4.648;2022-07-23T08:02:45;9.45;;;8.43;;
26686;SDS011;14298;50.900;4.648;2022-07-23T08:05:14;10.98;;;8.75;;
26686;SDS011;14298;50.900;4.648;2022-07-23T08:07:49;11.38;;;9.50;;
26686;SDS011;14298;50.900;4.648;2022-07-23T08:10:18;11.43;;;10.18;;
26686;SDS011;14298;50.900;4.648;2022-07-23T08:12:51;11.03;;;9.93;;
26686;SDS011;14298;50.900;4.648;2022-07-23T08:15:23;9.30;;;7.80;;
26686;SDS011;14298;50.900;4.648;2022-07-23T08:17:53;11.83;;;10.63;;
26686;SDS011;14298;50.900;4.648;2022-07-23T08:20:22;12.77;;;10.10;;
26686;SDS011;14298;50.900;4.648;2022-07-23T08:22:55;10.75;;;9.73;;
26686;SDS011;14298;50.900;4.648;2022-07-23T08:25:23;14.67;;;10.97;;
26686;SDS011;14298;50.900;4.648;2022-07-23T08:27:53;11.70;;;8.83;;
26686;SDS011;14298;50.900;4.648;2022-07-23T08:30:22;9.23;;;8.33;;
26686;SDS011;14298;50.900;4.648;2022-07-23T08:32:51;11.17;;;8.33;;
26686;SDS011;14298;50.900;4.648;2022-07-23T08:35:25;11.23;;;8.87;;
26686;SDS011;14298;50.900;4.648;2022-07-23T08:37:56;9.53;;;8.07;;
26686;SDS011;14298;50.900;4.648;2022-07-23T08:40:26;8.80;;;7.40;;
26686;SDS011;14298;50.900;4.648;2022-07-23T08:42:56;10.13;;;7.33;;
26686;SDS011;14298;50.900;4.648;2022-07-23T08:45:25;9.03;;;7.42;;
26686;SDS011;14298;50.900;4.648;2022-07-23T08:47:55;9.13;;;6.72;;
26686;SDS011;14298;50.900;4.648;2022-07-23T08:50:25;7.42;;;6.05;;
26686;SDS011;14298;50.900;4.648;2022-07-23T08:52:54;9.18;;;7.45;;
26686;SDS011;14298;50.900;4.648;2022-07-23T08:55:24;8.43;;;7.28;;
26686;SDS011;14298;50.900;4.648;2022-07-23T08:57:52;8.80;;;7.97;;
26686;SDS011;14298;50.900;4.648;2022-07-23T09:00:21;11.00;;;8.33;;
26686;SDS011;14298;50.900;4.648;2022-07-23T09:02:50;8.33;;;7.00;;
26686;SDS011;14298;50.900;4.648;2022-07-23T09:05:19;8.18;;;6.85;;
26686;SDS011;14298;50.900;4.648;2022-07-23T09:10:53;7.33;;;6.22;;
26686;SDS011;14298;50.900;4.648;2022-07-23T09:15:58;12.88;;;6.95;;
26686;SDS011;14298;50.900;4.648;2022-07-23T09:18:34;8.08;;;6.28;;
26686;SDS011;14298;50.900;4.648;2022-07-23T09:21:06;8.35;;;6.55;;
26686;SDS011;14298;50.900;4.648;2022-07-23T09:23:45;8.25;;;7.10;;
26686;SDS011;14298;50.900;4.648;2022-07-23T09:26:29;9.43;;;6.90;;
26686;SDS011;14298;50.900;4.648;2022-07-23T09:29:04;6.80;;;6.17;;
26686;SDS011;14298;50.900;4.648;2022-07-23T09:31:48;7.17;;;6.47;;
26686;SDS011;14298;50.900;4.648;2022-07-23T09:34:27;8.23;;;6.35;;
26686;SDS011;14298;50.900;4.648;2022-07-23T09:37:12;6.28;;;5.62;;
26686;SDS011;14298;50.900;4.648;2022-07-23T09:39:46;5.87;;;4.67;;
26686;SDS011;14298;50.900;4.648;2022-07-23T09:42:26;5.55;;;4.58;;
26686;SDS011;14298;50.900;4.648;2022-07-23T09:44:54;5.72;;;4.33;;
26686;SDS011;14298;50.900;4.648;2022-07-23T09:47:24;7.37;;;4.00;;
26686;SDS011;14298;50.900;4.648;2022-07-23T09:49:58;7.33;;;4.83;;
26686;SDS011;14298;50.900;4.648;2022-07-23T09:52:37;4.35;;;3.90;;
26686;SDS011;14298;50.900;4.648;2022-07-23T09:55:15;4.72;;;4.22;;
26686;SDS011;14298;50.900;4.648;2022-07-23T09:57:45;6.30;;;4.28;;
26686;SDS011;14298;50.900;4.648;2022-07-23T10:00:18;4.92;;;4.30;;
26686;SDS011;14298;50.900;4.648;2022-07-23T10:02:47;5.45;;;4.15;;
26686;SDS011;14298;50.900;4.648;2022-07-23T10:05:17;6.40;;;3.80;;
26686;SDS011;14298;50.900;4.648;2022-07-23T10:07:46;6.53;;;4.00;;
26686;SDS011;14298;50.900;4.648;2022-07-23T10:10:15;5.10;;;3.95;;
26686;SDS011;14298;50.900;4.648;2022-07-23T10:12:44;6.08;;;3.70;;
26686;SDS011;14298;50.900;4.648;2022-07-23T10:15:15;5.25;;;4.05;;
26686;SDS011;14298;50.900;4.648;2022-07-23T10:17:44;4.95;;;3.10;;
26686;SDS011;14298;50.900;4.648;2022-07-23T10:20:12;4.12;;;3.50;;
26686;SDS011;14298;50.900;4.648;2022-07-23T10:22:42;4.95;;;3.67;;
26686;SDS011;14298;50.900;4.648;2022-07-23T10:25:18;4.87;;;3.35;;
26686;SDS011;14298;50.900;4.648;2022-07-23T10:27:58;3.55;;;2.62;;
26686;SDS011;14298;50.900;4.648;2022-07-23T10:30:39;3.27;;;2.30;;
26686;SDS011;14298;50.900;4.648;2022-07-23T10:36:11;2.87;;;2.60;;
26686;SDS011;14298;50.900;4.648;2022-07-23T10:38:58;3.77;;;3.05;;
26686;SDS011;14298;50.900;4.648;2022-07-23T10:41:35;3.75;;;1.95;;
26686;SDS011;14298;50.900;4.648;2022-07-23T10:44:18;2.20;;;2.00;;
26686;SDS011;14298;50.900;4.648;2022-07-23T10:46:55;2.80;;;2.10;;
26686;SDS011;14298;50.900;4.648;2022-07-23T10:49:35;4.92;;;3.08;;
26686;SDS011;14298;50.900;4.648;2022-07-23T10:55:40;5.08;;;2.33;;
26686;SDS011;14298;50.900;4.648;2022-07-23T10:57:26;8.38;;;2.50;;
26686;SDS011;14298;50.900;4.648;2022-07-23T11:02:39;6.50;;;3.50;;
26686;SDS011;14298;50.900;4.648;2022-07-23T11:05:10;4.42;;;3.15;;
26686;SDS011;14298;50.900;4.648;2022-07-23T11:10:38;5.20;;;3.53;;
26686;SDS011;14298;50.900;4.648;2022-07-23T11:16:12;4.90;;;3.17;;
26686;SDS011;14298;50.900;4.648;2022-07-23T11:23:59;3.25;;;2.70;;
26686;SDS011;14298;50.900;4.648;2022-07-23T11:26:40;5.67;;;2.70;;
26686;SDS011;14298;50.900;4.648;2022-07-23T11:32:04;4.57;;;2.53;;
26686;SDS011;14298;50.900;4.648;2022-07-23T11:34:35;4.23;;;2.43;;
26686;SDS011;14298;50.900;4.648;2022-07-23T11:37:11;2.80;;;2.42;;
26686;SDS011;14298;50.900;4.648;2022-07-23T11:39:42;7.20;;;3.13;;
26686;SDS011;14298;50.900;4.648;2022-07-23T11:42:16;3.40;;;2.70;;
26686;SDS011;14298;50.900;4.648;2022-07-23T11:44:46;4.17;;;2.70;;
26686;SDS011;14298;50.900;4.648;2022-07-23T11:47:14;3.47;;;3.00;;
26686;SDS011;14298;50.900;4.648;2022-07-23T11:49:54;3.50;;;2.57;;
26686;SDS011;14298;50.900;4.648;2022-07-23T11:52:24;2.53;;;2.30;;
26686;SDS011;14298;50.900;4.648;2022-07-23T11:54:57;6.87;;;2.80;;
26686;SDS011;14298;50.900;4.648;2022-07-23T11:57:31;3.50;;;2.60;;
26686;SDS011;14298;50.900;4.648;2022-07-23T12:00:04;4.03;;;2.63;;
26686;SDS011;14298;50.900;4.648;2022-07-23T12:02:33;2.80;;;2.50;;
26686;SDS011;14298;50.900;4.648;2022-07-23T12:05:01;4.90;;;3.00;;
26686;SDS011;14298;50.900;4.648;2022-07-23T12:07:37;4.13;;;3.27;;
26686;SDS011;14298;50.900;4.648;2022-07-23T12:10:11;7.00;;;2.80;;
26686;SDS011;14298;50.900;4.648;2022-07-23T12:12:42;2.70;;;2.50;;
26686;SDS011;14298;50.900;4.648;2022-07-23T12:15:17;2.72;;;2.45;;
26686;SDS011;14298;50.900;4.648;2022-07-23T12:17:49;2.97;;;2.60;;
26686;SDS011;14298;50.900;4.648;2022-07-23T12:20:22;3.08;;;2.62;;
26686;SDS011;14298;50.900;4.648;2022-07-23T12:22:51;2.90;;;2.62;;
26686;SDS011;14298;50.900;4.648;2022-07-23T12:25:22;4.47;;;2.80;;
26686;SDS011;14298;50.900;4.648;2022-07-23T12:27:59;3.63;;;2.77;;
26686;SDS011;14298;50.900;4.648;2022-07-23T12:30:34;6.70;;;2.70;;
26686;SDS011;14298;50.900;4.648;2022-07-23T12:33:26;3.30;;;2.90;;
26686;SDS011;14298;50.900;4.648;2022-07-23T12:36:02;4.90;;;2.60;;
26686;SDS011;14298;50.900;4.648;2022-07-23T12:38:37;4.20;;;2.30;;
26686;SDS011;14298;50.900;4.648;2022-07-23T12:41:13;2.67;;;2.17;;
26686;SDS011;14298;50.900;4.648;2022-07-23T12:43:43;2.77;;;2.58;;
26686;SDS011;14298;50.900;4.648;2022-07-23T12:46:18;4.65;;;3.20;;
26686;SDS011;14298;50.900;4.648;2022-07-23T12:51:23;5.67;;;2.47;;
26686;SDS011;14298;50.900;4.648;2022-07-23T12:54:03;2.90;;;2.40;;
26686;SDS011;14298;50.900;4.648;2022-07-23T12:56:34;3.85;;;2.62;;
26686;SDS011;14298;50.900;4.648;2022-07-23T13:01:53;4.15;;;2.85;;
26686;SDS011;14298;50.900;4.648;2022-07-23T13:04:14;3.87;;;2.52;;
26686;SDS011;14298;50.900;4.648;2022-07-23T13:06:49;5.28;;;2.77;;
26686;SDS011;14298;50.900;4.648;2022-07-23T13:09:19;3.37;;;3.00;;
26686;SDS011;14298;50.900;4.648;2022-07-23T13:11:53;3.47;;;2.72;;
26686;SDS011;14298;50.900;4.648;2022-07-23T13:14:22;2.95;;;2.50;;
26686;SDS011;14298;50.900;4.648;2022-07-23T13:16:52;2.70;;;2.50;;
26686;SDS011;14298;50.900;4.648;2022-07-23T13:19:21;6.45;;;2.72;;
26686;SDS011;14298;50.900;4.648;2022-07-23T13:21:49;3.08;;;2.80;;
26686;SDS011;14298;50.900;4.648;2022-07-23T13:24:17;5.40;;;2.45;;
26686;SDS011;14298;50.900;4.648;2022-07-23T13:26:46;4.25;;;2.67;;
26686;SDS011;14298;50.900;4.648;2022-07-23T13:29:16;2.70;;;2.50;;
26686;SDS011;14298;50.900;4.648;2022-07-23T13:31:44;8.63;;;3.27;;
26686;SDS011;14298;50.900;4.648;2022-07-23T13:34:12;3.35;;;2.80;;
26686;SDS011;14298;50.900;4.648;2022-07-23T13:36:41;2.73;;;2.50;;
26686;SDS011;14298;50.900;4.648;2022-07-23T13:39:10;2.50;;;2.30;;
26686;SDS011;14298;50.900;4.648;2022-07-23T13:41:38;5.28;;;2.55;;
26686;SDS011;14298;50.900;4.648;2022-07-23T13:44:07;4.62;;;2.80;;
26686;SDS011;14298;50.900;4.648;2022-07-23T13:46:35;3.27;;;2.80;;
26686;SDS011;14298;50.900;4.648;2022-07-23T13:49:03;5.25;;;3.10;;
26686;SDS011;14298;50.900;4.648;2022-07-23T13:51:32;4.47;;;2.83;;
26686;SDS011;14298;50.900;4.648;2022-07-23T13:54:00;4.00;;;2.85;;
26686;SDS011;14298;50.900;4.648;2022-07-23T13:56:29;4.50;;;2.60;;
26686;SDS011;14298;50.900;4.648;2022-07-23T13:58:57;3.77;;;3.10;;
26686;SDS011;14298;50.900;4.648;2022-07-23T14:01:26;9.05;;;2.72;;
26686;SDS011;14298;50.900;4.648;2022-07-23T14:03:54;7.87;;;2.93;;
26686;SDS011;14298;50.900;4.648;2022-07-23T14:06:23;4.00;;;3.60;;
26686;SDS011;14298;50.900;4.648;2022-07-23T14:08:51;7.28;;;3.08;;
26686;SDS011;14298;50.900;4.648;2022-07-23T14:11:19;4.17;;;2.83;;
26686;SDS011;14298;50.900;4.648;2022-07-23T14:13:48;3.00;;;2.50;;
26686;SDS011;14298;50.900;4.648;2022-07-23T14:16:16;4.25;;;2.80;;
26686;SDS011;14298;50.900;4.648;2022-07-23T14:18:45;3.93;;;2.67;;
26686;SDS011;14298;50.900;4.648;2022-07-23T14:21:13;2.98;;;2.77;;
26686;SDS011;14298;50.900;4.648;2022-07-23T14:23:41;13.15;;;3.37;;
26686;SDS011;14298;50.900;4.648;2022-07-23T14:26:10;5.25;;;2.80;;
26686;SDS011;14298;50.900;4.648;2022-07-23T14:28:38;3.95;;;3.25;;
26686;SDS011;14298;50.900;4.648;2022-07-23T14:31:06;5.28;;;2.90;;
26686;SDS011;14298;50.900;4.648;2022-07-23T14:33:35;6.33;;;3.10;;
26686;SDS011;14298;50.900;4.648;2022-07-23T14:36:04;5.97;;;3.08;;
26686;SDS011;14298;50.900;4.648;2022-07-23T14:38:33;4.20;;;2.92;;
26686;SDS011;14298;50.900;4.648;2022-07-23T14:41:01;3.77;;;3.08;;
26686;SDS011;14298;50.900;4.648;2022-07-23T14:43:31;7.20;;;3.22;;
26686;SDS011;14298;50.900;4.648;2022-07-23T14:46:00;6.28;;;2.77;;
26686;SDS011;14298;50.900;4.648;2022-07-23T14:48:28;4.37;;;2.80;;
26686;SDS011;14298;50.900;4.648;2022-07-23T14:50:57;3.50;;;3.20;;
26686;SDS011;14298;50.900;4.648;2022-07-23T14:53:26;3.50;;;3.17;;
26686;SDS011;14298;50.900;4.648;2022-07-23T14:55:54;18.17;;;15.93;;
26686;SDS011;14298;50.900;4.648;2022-07-23T14:58:24;127.30;;;115.32;;
26686;SDS011;14298;50.900;4.648;2022-07-23T15:00:53;27.05;;;24.52;;
26686;SDS011;14298;50.900;4.648;2022-07-23T15:03:22;5.12;;;4.50;;
26686;SDS011;14298;50.900;4.648;2022-07-23T15:05:51;5.60;;;4.05;;
26686;SDS011;14298;50.900;4.648;2022-07-23T15:08:19;5.00;;;3.85;;
26686;SDS011;14298;50.900;4.648;2022-07-23T15:10:47;3.85;;;3.45;;
26686;SDS011;14298;50.900;4.648;2022-07-23T15:13:15;7.65;;;4.00;;
26686;SDS011;14298;50.900;4.648;2022-07-23T15:15:44;3.60;;;3.30;;
26686;SDS011;14298;50.900;4.648;2022-07-23T15:18:13;4.08;;;3.70;;
26686;SDS011;14298;50.900;4.648;2022-07-23T15:20:41;3.60;;;3.30;;
26686;SDS011;14298;50.900;4.648;2022-07-23T15:23:10;7.58;;;6.03;;